createdAt,value
2024-01-24T00:04:48.988Z,25.19
2024-01-24T00:09:50.527Z,25.46
2024-01-24T00:14:52.016Z,25.37
2024-01-24T00:19:53.334Z,25.51
2024-01-24T00:24:54.661Z,25.52
2024-01-24T00:29:55.968Z,25.51
2024-01-24T00:34:57.249Z,25.70
2024-01-24T00:39:58.708Z,26.16
2024-01-24T00:45:00.015Z,26.88
2024-01-24T00:50:01.434Z,27.02
2024-01-24T00:55:02.719Z,27.46
2024-01-24T01:00:07.134Z,27.57
2024-01-24T01:05:08.863Z,27.57
2024-01-24T01:10:10.433Z,27.50
2024-01-24T01:15:11.792Z,27.84
2024-01-24T01:20:15.374Z,27.80
2024-01-24T01:25:16.705Z,28.08
2024-01-24T01:30:18.136Z,28.15
2024-01-24T01:35:19.474Z,28.43
2024-01-24T01:40:20.872Z,28.37
2024-01-24T01:45:22.235Z,28.58
2024-01-24T01:50:23.781Z,28.51
2024-01-24T01:55:25.102Z,28.95
2024-01-24T02:00:29.461Z,29.14
2024-01-24T02:05:30.915Z,29.23
2024-01-24T02:10:32.210Z,28.86
2024-01-24T02:15:33.653Z,28.70
2024-01-24T02:20:34.955Z,28.71
2024-01-24T02:25:36.240Z,29.24
2024-01-24T02:30:37.583Z,29.45
2024-01-24T02:35:38.963Z,29.38
2024-01-24T02:40:40.349Z,29.22
2024-01-24T02:45:41.686Z,29.53
2024-01-24T02:50:43.025Z,29.78
2024-01-24T02:55:44.696Z,29.91
2024-01-24T03:00:46.161Z,29.82
2024-01-24T03:05:47.530Z,30.04
2024-01-24T03:10:48.866Z,30.09
2024-01-24T03:15:50.253Z,30.05
2024-01-24T03:20:51.564Z,30.57
2024-01-24T03:25:52.894Z,30.67
2024-01-24T03:30:54.372Z,30.69
2024-01-24T03:35:55.757Z,30.75
2024-01-24T03:40:57.048Z,30.64
2024-01-24T03:45:58.455Z,30.69
2024-01-24T03:50:59.883Z,30.65
2024-01-24T03:56:01.204Z,30.55
2024-01-24T04:01:02.742Z,30.84
2024-01-24T04:06:04.178Z,30.82
2024-01-24T04:11:05.559Z,31.02
2024-01-24T04:16:06.960Z,30.99
2024-01-24T04:21:08.272Z,31.34
2024-01-24T04:26:10.752Z,31.27
2024-01-24T04:31:12.054Z,30.81
2024-01-24T04:36:13.405Z,30.63
2024-01-24T04:41:14.733Z,30.84
2024-01-24T04:46:16.028Z,31.28
2024-01-24T04:51:17.362Z,31.26
2024-01-24T04:56:18.692Z,31.00
2024-01-24T05:01:20.195Z,31.04
2024-01-24T05:06:21.713Z,31.28
2024-01-24T05:11:23.070Z,30.78
2024-01-24T05:16:24.393Z,31.11
2024-01-24T05:21:25.743Z,31.08
2024-01-24T05:26:27.091Z,31.48
2024-01-24T05:31:28.483Z,31.39
2024-01-24T05:36:30.338Z,31.05
2024-01-24T05:41:31.679Z,31.07
2024-01-24T05:46:33.009Z,31.02
2024-01-24T05:51:34.346Z,31.06
2024-01-24T05:56:36.440Z,31.37
2024-01-24T06:01:38.124Z,31.22
2024-01-24T06:06:39.775Z,31.07
2024-01-24T06:11:41.160Z,31.14
2024-01-24T06:16:42.554Z,31.46
2024-01-24T06:21:43.877Z,31.42
2024-01-24T06:26:46.468Z,31.34
2024-01-24T06:31:47.766Z,31.48
2024-01-24T06:36:50.176Z,31.61
2024-01-24T06:41:51.537Z,31.97
2024-01-24T06:46:52.855Z,31.97
2024-01-24T06:51:54.264Z,31.61
2024-01-24T06:56:55.747Z,31.96
2024-01-24T07:01:57.100Z,32.01
2024-01-24T07:06:58.474Z,32.07
2024-01-24T07:12:03.167Z,32.08
2024-01-24T07:17:06.269Z,32.11
2024-01-24T07:22:07.645Z,32.23
2024-01-24T07:27:09.070Z,32.10
2024-01-24T07:32:10.390Z,32.22
2024-01-24T07:37:11.746Z,32.12
2024-01-24T07:42:13.115Z,32.02
2024-01-24T07:47:14.572Z,32.26
2024-01-24T07:52:25.305Z,32.13
2024-01-24T07:57:33.936Z,32.08
2024-01-24T08:02:35.290Z,32.30
2024-01-24T08:07:37.957Z,32.36
2024-01-24T08:12:39.896Z,32.28
2024-01-24T08:17:41.472Z,32.59
2024-01-24T08:22:42.776Z,32.81
2024-01-24T08:27:44.206Z,32.72
2024-01-24T08:32:45.642Z,32.67
2024-01-24T08:37:47.056Z,33.23
2024-01-24T08:42:48.390Z,33.16
2024-01-24T08:47:51.236Z,33.16
2024-01-24T08:52:53.494Z,33.01
2024-01-24T08:57:54.868Z,33.20
2024-01-24T09:02:56.639Z,32.76
2024-01-24T09:07:58.220Z,32.81
2024-01-24T09:12:59.640Z,32.54
2024-01-24T09:18:01.134Z,32.37
2024-01-24T09:23:02.504Z,32.35
2024-01-24T09:28:09.387Z,32.75
2024-01-24T09:33:11.009Z,32.49
2024-01-24T09:38:12.408Z,32.87
2024-01-24T09:43:13.790Z,32.63
2024-01-24T09:48:15.248Z,32.55
2024-01-24T09:53:18.293Z,31.97
2024-01-24T09:58:20.000Z,31.80
2024-01-24T10:03:21.573Z,31.67
2024-01-24T10:08:22.910Z,31.69
2024-01-24T10:13:26.157Z,31.86
2024-01-24T10:18:27.576Z,31.52
2024-01-24T10:23:30.192Z,31.61
2024-01-24T10:28:31.521Z,31.37
2024-01-24T10:33:33.149Z,31.54
2024-01-24T10:38:34.728Z,30.95
2024-01-24T10:43:36.123Z,31.04
2024-01-24T10:48:37.788Z,31.06
2024-01-24T10:53:39.221Z,31.77
2024-01-24T10:58:40.771Z,31.34
2024-01-24T11:03:42.472Z,30.84
2024-01-24T11:08:51.304Z,30.58
2024-01-24T11:13:53.300Z,30.50
2024-01-24T11:18:54.846Z,30.60
2024-01-24T11:23:56.318Z,30.36
2024-01-24T11:29:07.094Z,30.40
2024-01-24T11:34:15.737Z,30.49
2024-01-24T11:39:32.073Z,30.79
2024-01-24T11:44:33.652Z,30.71
2024-01-24T11:49:35.171Z,30.93
2024-01-24T11:54:36.558Z,30.71
2024-01-24T11:59:37.884Z,30.81
2024-01-24T12:04:39.296Z,30.80
2024-01-24T12:09:41.545Z,30.68
2024-01-24T12:14:43.280Z,30.58
2024-01-24T12:19:46.204Z,30.43
2024-01-24T12:24:48.166Z,30.61
2024-01-24T12:29:53.515Z,30.62
2024-01-24T12:34:55.784Z,30.44
2024-01-24T12:39:58.475Z,30.39
2024-01-24T12:44:59.784Z,30.48
2024-01-24T12:50:01.700Z,30.61
2024-01-24T12:55:03.692Z,30.32
2024-01-24T13:00:06.376Z,29.66
2024-01-24T13:05:08.315Z,29.37
2024-01-24T13:10:10.004Z,29.33
2024-01-24T13:15:11.364Z,29.17
2024-01-24T13:20:12.678Z,28.90
2024-01-24T13:25:14.164Z,28.83
2024-01-24T13:30:15.835Z,28.74
2024-01-24T13:35:17.850Z,28.35
2024-01-24T13:40:19.611Z,28.15
2024-01-24T13:45:21.382Z,28.10
2024-01-24T13:50:22.859Z,28.07
2024-01-24T13:55:24.270Z,28.13
2024-01-24T14:00:25.660Z,28.02
2024-01-24T14:05:27.126Z,28.08
2024-01-24T14:10:28.572Z,28.31
2024-01-24T14:15:34.608Z,28.78
2024-01-24T14:20:38.377Z,29.28
2024-01-24T14:25:39.740Z,29.39
2024-01-24T14:30:41.140Z,29.50
2024-01-24T14:35:42.619Z,29.42
2024-01-24T14:40:44.033Z,29.03
2024-01-24T14:45:46.652Z,28.63
2024-01-24T14:50:47.969Z,28.03
2024-01-24T14:55:49.286Z,27.92
2024-01-24T15:00:51.061Z,27.68
2024-01-24T15:05:52.505Z,27.65
2024-01-24T15:10:53.796Z,27.54
2024-01-24T15:15:55.195Z,27.17
2024-01-24T15:21:07.189Z,27.48
2024-01-24T15:26:12.744Z,27.44
2024-01-24T15:31:14.341Z,27.37
2024-01-24T15:36:15.845Z,27.49
2024-01-24T15:41:18.361Z,27.49
2024-01-24T15:46:20.835Z,27.43
2024-01-24T15:51:23.172Z,27.46
2024-01-24T15:56:24.518Z,27.52
2024-01-24T16:01:27.758Z,27.43
2024-01-24T16:06:29.515Z,27.33
2024-01-24T16:11:32.422Z,27.40
2024-01-24T16:16:33.852Z,27.08
2024-01-24T16:21:35.185Z,26.67
2024-01-24T16:26:36.688Z,26.51
2024-01-24T16:31:38.006Z,26.40
2024-01-24T16:36:39.518Z,26.34
2024-01-24T16:41:40.893Z,26.28
2024-01-24T16:46:42.358Z,26.24
2024-01-24T16:51:43.915Z,26.06
2024-01-24T17:01:51.502Z,26.05
2024-01-24T17:06:52.879Z,25.97
2024-01-24T17:11:54.500Z,25.93
2024-01-24T17:16:55.865Z,25.83
2024-01-24T17:21:57.465Z,26.02
2024-01-24T17:26:58.792Z,25.90
2024-01-24T17:32:00.119Z,25.99
2024-01-24T17:37:01.581Z,26.02
2024-01-24T17:42:03.274Z,26.17
2024-01-24T17:47:05.447Z,25.97
2024-01-24T17:52:06.943Z,26.02
2024-01-24T17:57:08.314Z,25.85
2024-01-24T18:02:09.677Z,25.77
2024-01-24T18:07:11.292Z,25.94
2024-01-24T18:12:12.782Z,25.80
2024-01-24T18:17:14.102Z,25.88
2024-01-24T18:22:16.473Z,26.01
2024-01-24T18:27:17.889Z,25.93
2024-01-24T18:32:19.608Z,26.15
2024-01-24T18:37:20.918Z,26.29
2024-01-24T18:42:22.762Z,26.24
2024-01-24T18:47:25.686Z,26.04
2024-01-24T18:52:28.068Z,26.19
2024-01-24T18:57:29.505Z,26.14
2024-01-24T19:02:31.027Z,26.55
2024-01-24T19:07:32.582Z,26.38
2024-01-24T19:12:34.391Z,26.34
2024-01-24T19:17:37.314Z,26.28
2024-01-24T19:22:38.770Z,26.22
2024-01-24T19:27:40.586Z,26.14
2024-01-24T19:32:41.995Z,26.23
2024-01-24T19:37:43.386Z,26.14
2024-01-24T19:42:47.144Z,26.15
2024-01-24T19:47:49.059Z,26.15
2024-01-24T19:52:52.071Z,26.23
2024-01-24T19:57:54.164Z,26.21
2024-01-24T20:02:56.488Z,26.39
2024-01-24T20:07:57.892Z,26.45
2024-01-24T20:12:59.277Z,26.26
2024-01-24T20:18:00.701Z,26.24
2024-01-24T20:23:02.100Z,26.52
2024-01-24T20:28:03.746Z,26.67
2024-01-24T20:33:05.682Z,26.35
2024-01-24T20:38:07.191Z,26.55
2024-01-24T20:43:08.520Z,26.61
2024-01-24T20:48:15.423Z,26.58
2024-01-24T20:53:18.712Z,26.66
2024-01-24T20:58:20.138Z,26.49
2024-01-24T21:03:21.606Z,26.85
2024-01-24T21:08:23.890Z,27.46
2024-01-24T21:13:25.948Z,27.77
2024-01-24T21:18:27.472Z,27.88
2024-01-24T21:23:29.031Z,27.97
2024-01-24T21:28:30.527Z,27.83
2024-01-24T21:33:32.828Z,27.80
2024-01-24T21:38:34.405Z,27.61
2024-01-24T21:43:35.738Z,27.49
2024-01-24T21:48:37.164Z,27.55
2024-01-24T21:53:38.557Z,27.45
2024-01-24T21:58:39.907Z,27.31
2024-01-24T22:03:41.273Z,27.11
2024-01-24T22:08:42.670Z,27.07
2024-01-24T22:13:44.018Z,26.90
2024-01-24T22:18:48.306Z,26.66
2024-01-24T22:23:51.396Z,26.75
2024-01-24T22:28:53.314Z,26.64
2024-01-24T22:33:55.062Z,26.63
2024-01-24T22:38:56.886Z,26.43
2024-01-24T22:43:58.199Z,26.33
2024-01-24T22:48:59.828Z,26.25
2024-01-24T22:54:01.817Z,26.14
2024-01-24T22:59:03.132Z,26.17
2024-01-24T23:04:04.650Z,26.22
2024-01-24T23:09:06.491Z,26.07
2024-01-24T23:14:07.796Z,25.98
2024-01-24T23:19:09.286Z,26.35
2024-01-24T23:24:10.687Z,26.10
2024-01-24T23:29:11.984Z,26.08
2024-01-24T23:34:13.487Z,26.18
2024-01-24T23:39:14.912Z,26.04
2024-01-24T23:44:16.217Z,26.22
2024-01-24T23:49:17.778Z,26.26
2024-01-24T23:54:19.266Z,26.38
2024-01-24T23:59:20.557Z,26.25
